createdAt,value
2022-11-19T00:01:10.174Z,13.07
2022-11-19T00:03:38.125Z,12.77
2022-11-19T00:06:13.155Z,13.43
2022-11-19T00:08:40.525Z,13.65
2022-11-19T00:11:10.222Z,13.65
2022-11-19T00:13:38.073Z,14.30
2022-11-19T00:16:10.379Z,12.93
2022-11-19T00:18:36.901Z,13.80
2022-11-19T00:21:06.380Z,13.30
2022-11-19T00:23:33.110Z,13.55
2022-11-19T00:26:06.530Z,13.25
2022-11-19T00:28:32.932Z,13.75
2022-11-19T00:31:05.504Z,12.82
2022-11-19T00:33:31.969Z,13.32
2022-11-19T00:35:59.670Z,14.63
2022-11-19T00:38:27.043Z,14.18
2022-11-19T00:40:53.459Z,14.00
2022-11-19T00:43:38.814Z,14.70
2022-11-19T00:46:05.541Z,13.90
2022-11-19T00:48:32.065Z,14.60
2022-11-19T00:50:58.725Z,14.98
2022-11-19T00:53:25.450Z,14.02
2022-11-19T00:55:51.903Z,13.93
2022-11-19T00:58:19.382Z,13.75
2022-11-19T01:00:46.660Z,13.77
2022-11-19T01:03:13.203Z,14.00
2022-11-19T01:05:39.594Z,14.93
2022-11-19T01:08:05.977Z,14.52
2022-11-19T01:10:34.352Z,14.38
2022-11-19T01:13:19.501Z,14.73
2022-11-19T01:15:50.347Z,14.27
2022-11-19T01:18:17.876Z,13.98
2022-11-19T01:20:45.377Z,13.82
2022-11-19T01:23:11.805Z,15.73
2022-11-19T01:25:38.350Z,15.18
2022-11-19T01:28:05.486Z,14.30
2022-11-19T01:30:33.032Z,14.15
2022-11-19T01:32:59.830Z,14.98
2022-11-19T01:35:26.354Z,14.40
2022-11-19T01:37:52.950Z,15.15
2022-11-19T01:40:25.062Z,14.35
2022-11-19T01:42:54.229Z,14.27
2022-11-19T01:45:35.406Z,13.93
2022-11-19T01:48:22.809Z,16.05
2022-11-19T01:50:52.674Z,13.52
2022-11-19T01:53:20.990Z,13.70
2022-11-19T01:55:48.433Z,14.43
2022-11-19T01:58:20.432Z,14.40
2022-11-19T02:00:50.627Z,13.93
2022-11-19T02:03:18.882Z,13.93
2022-11-19T02:05:46.651Z,14.07
2022-11-19T02:08:43.142Z,14.65
2022-11-19T02:11:40.440Z,13.45
2022-11-19T02:14:39.305Z,14.82
2022-11-19T02:17:33.135Z,13.70
2022-11-19T02:20:37.079Z,13.82
2022-11-19T02:23:18.855Z,14.60
2022-11-19T02:26:17.575Z,14.52
2022-11-19T02:28:49.766Z,13.10
2022-11-19T02:31:34.393Z,14.10
2022-11-19T02:34:08.922Z,13.70
2022-11-19T02:36:56.703Z,13.30
2022-11-19T02:39:38.520Z,12.73
2022-11-19T02:42:17.083Z,15.35
2022-11-19T02:45:14.255Z,14.02
2022-11-19T02:47:52.748Z,13.77
2022-11-19T02:50:24.727Z,13.50
2022-11-19T02:52:51.393Z,13.48
2022-11-19T02:55:20.242Z,13.73
2022-11-19T02:57:58.236Z,14.93
2022-11-19T03:00:43.925Z,14.15
2022-11-19T03:03:38.593Z,13.85
2022-11-19T03:06:18.525Z,14.88
2022-11-19T03:08:46.380Z,13.52
2022-11-19T03:11:21.176Z,14.50
2022-11-19T03:14:12.864Z,13.77
2022-11-19T03:16:42.472Z,12.63
2022-11-19T03:19:20.756Z,14.48
2022-11-19T03:22:21.826Z,13.50
2022-11-19T03:25:03.352Z,13.73
2022-11-19T03:27:40.947Z,13.23
2022-11-19T03:30:09.157Z,13.50
2022-11-19T03:32:40.369Z,13.43
2022-11-19T03:35:11.754Z,13.98
2022-11-19T03:37:42.064Z,14.23
2022-11-19T03:40:10.796Z,13.48
2022-11-19T03:42:40.004Z,12.48
2022-11-19T03:45:14.915Z,13.77
2022-11-19T03:47:43.124Z,12.88
2022-11-19T03:50:21.454Z,11.75
2022-11-19T03:52:47.922Z,13.27
2022-11-19T03:55:14.321Z,12.93
2022-11-19T03:57:40.863Z,12.70
2022-11-19T04:00:08.040Z,13.00
2022-11-19T04:02:40.803Z,13.52
2022-11-19T04:05:07.918Z,11.68
2022-11-19T04:07:34.335Z,11.90
2022-11-19T04:10:00.835Z,13.57
2022-11-19T04:12:27.262Z,11.70
2022-11-19T04:14:53.640Z,11.38
2022-11-19T04:17:20.164Z,13.15
2022-11-19T04:19:46.749Z,13.00
2022-11-19T04:22:13.153Z,12.75
2022-11-19T04:24:39.541Z,11.73
2022-11-19T04:27:05.941Z,13.60
2022-11-19T04:29:32.360Z,12.75
2022-11-19T04:31:58.809Z,12.57
2022-11-19T04:34:25.211Z,11.90
2022-11-19T04:36:51.613Z,11.60
2022-11-19T04:39:18.314Z,12.07
2022-11-19T04:41:45.090Z,13.30
2022-11-19T04:44:11.604Z,12.15
2022-11-19T04:46:38.013Z,13.02
2022-11-19T04:49:04.396Z,13.00
2022-11-19T04:51:30.851Z,13.18
2022-11-19T04:53:57.329Z,12.55
2022-11-19T04:56:23.721Z,11.70
2022-11-19T04:58:50.126Z,13.05
2022-11-19T05:01:16.580Z,11.40
2022-11-19T05:03:43.004Z,11.82
2022-11-19T05:06:09.395Z,11.80
2022-11-19T05:08:35.796Z,11.68
2022-11-19T05:11:02.189Z,12.60
2022-11-19T05:13:28.585Z,12.50
2022-11-19T05:15:54.958Z,11.80
2022-11-19T05:18:21.361Z,12.68
2022-11-19T05:20:47.949Z,12.00
2022-11-19T05:23:14.473Z,11.43
2022-11-19T05:25:40.864Z,11.63
2022-11-19T05:28:07.282Z,11.68
2022-11-19T05:30:33.668Z,13.13
2022-11-19T05:33:00.147Z,11.18
2022-11-19T05:35:26.666Z,11.40
2022-11-19T05:37:53.074Z,11.05
2022-11-19T05:40:19.466Z,11.82
2022-11-19T05:42:45.907Z,10.68
2022-11-19T05:45:12.689Z,11.57
2022-11-19T05:47:40.685Z,10.38
2022-11-19T05:50:10.295Z,11.23
2022-11-19T05:52:36.750Z,11.65
2022-11-19T05:55:03.601Z,10.65
2022-11-19T05:57:30.107Z,12.18
2022-11-19T05:59:56.504Z,11.48
2022-11-19T06:02:22.904Z,11.07
2022-11-19T06:04:50.382Z,11.07
2022-11-19T06:07:16.798Z,10.80
2022-11-19T06:09:43.196Z,11.30
2022-11-19T06:12:09.573Z,11.63
2022-11-19T06:14:35.980Z,11.65
2022-11-19T06:17:02.642Z,10.27
2022-11-19T06:19:29.039Z,10.35
2022-11-19T06:21:55.564Z,10.75
2022-11-19T06:24:21.982Z,11.00
2022-11-19T06:26:48.439Z,10.02
2022-11-19T06:29:16.327Z,10.70
2022-11-19T06:31:42.781Z,10.07
2022-11-19T06:34:09.798Z,9.43
2022-11-19T06:36:41.771Z,10.60
2022-11-19T06:39:09.696Z,10.52
2022-11-19T06:41:36.767Z,9.68
2022-11-19T06:44:03.431Z,10.23
2022-11-19T06:46:29.976Z,10.60
2022-11-19T06:48:56.380Z,9.40
2022-11-19T06:51:22.761Z,9.88
2022-11-19T06:53:49.178Z,10.68
2022-11-19T06:56:15.565Z,10.48
2022-11-19T06:58:42.279Z,9.88
2022-11-19T07:01:08.722Z,9.85
2022-11-19T07:03:35.736Z,10.40
2022-11-19T07:06:04.225Z,10.30
2022-11-19T07:08:34.444Z,10.23
2022-11-19T07:11:02.016Z,9.80
2022-11-19T07:13:51.307Z,10.38
2022-11-19T07:16:17.739Z,10.38
2022-11-19T07:18:44.176Z,9.73
2022-11-19T07:21:10.607Z,10.32
2022-11-19T07:23:37.046Z,10.95
2022-11-19T07:26:03.459Z,9.43
2022-11-19T07:28:29.864Z,9.80
2022-11-19T07:30:56.281Z,9.63
2022-11-19T07:33:22.676Z,10.27
2022-11-19T07:35:49.069Z,10.20
2022-11-19T07:38:15.473Z,9.65
2022-11-19T07:40:41.851Z,9.30
2022-11-19T07:43:08.272Z,10.32
2022-11-19T07:45:37.588Z,9.90
2022-11-19T07:48:04.072Z,10.43
2022-11-19T07:50:30.468Z,10.20
2022-11-19T07:52:59.146Z,9.57
2022-11-19T07:55:25.551Z,10.45
2022-11-19T07:57:53.683Z,10.30
2022-11-19T08:00:20.344Z,9.57
2022-11-19T08:02:46.757Z,9.63
2022-11-19T08:05:13.252Z,10.38
2022-11-19T08:07:39.724Z,10.57
2022-11-19T08:10:06.953Z,11.20
2022-11-19T08:12:33.336Z,10.65
2022-11-19T08:14:59.726Z,10.10
2022-11-19T08:17:44.630Z,10.32
2022-11-19T08:20:11.607Z,9.98
2022-11-19T08:22:40.525Z,9.98
2022-11-19T08:25:07.098Z,9.85
2022-11-19T08:27:33.915Z,10.40
2022-11-19T08:30:00.503Z,9.93
2022-11-19T08:32:26.910Z,10.73
2022-11-19T08:34:53.312Z,9.98
2022-11-19T08:37:19.697Z,9.50
2022-11-19T08:39:46.115Z,9.40
2022-11-19T08:42:31.287Z,10.68
2022-11-19T08:44:58.541Z,10.32
2022-11-19T08:47:24.915Z,9.07
2022-11-19T08:49:51.520Z,9.13
2022-11-19T08:52:17.903Z,9.32
2022-11-19T08:54:44.288Z,9.43
2022-11-19T08:57:10.682Z,9.52
2022-11-19T08:59:37.070Z,8.55
2022-11-19T09:02:03.458Z,9.40
2022-11-19T09:04:29.844Z,9.77
2022-11-19T09:06:57.524Z,8.95
2022-11-19T09:09:23.942Z,9.77
2022-11-19T09:11:50.344Z,9.52
2022-11-19T09:14:16.841Z,9.77
2022-11-19T09:16:43.302Z,8.90
2022-11-19T09:19:09.690Z,8.90
2022-11-19T09:21:36.078Z,10.13
2022-11-19T09:24:02.604Z,9.43
2022-11-19T09:26:28.990Z,9.65
2022-11-19T09:28:55.387Z,9.70
2022-11-19T09:31:21.770Z,9.73
2022-11-19T09:33:51.003Z,9.13
2022-11-19T09:36:18.502Z,8.75
2022-11-19T09:38:45.687Z,8.23
2022-11-19T09:41:45.616Z,9.00
2022-11-19T09:44:54.247Z,8.52
2022-11-19T09:47:40.667Z,8.30
2022-11-19T09:50:16.433Z,7.20
2022-11-19T09:52:48.283Z,7.85
2022-11-19T09:55:19.692Z,6.88
2022-11-19T09:57:50.058Z,7.32
2022-11-19T10:00:23.014Z,7.38
2022-11-19T10:02:49.689Z,6.57
2022-11-19T10:05:24.806Z,7.20
2022-11-19T10:08:07.942Z,6.10
2022-11-19T10:10:42.210Z,7.35
2022-11-19T10:13:26.911Z,7.15
2022-11-19T10:16:08.307Z,7.05
2022-11-19T10:18:47.525Z,7.45
2022-11-19T10:21:26.279Z,8.45
2022-11-19T10:24:02.637Z,7.50
2022-11-19T10:26:35.318Z,7.47
2022-11-19T10:29:12.563Z,7.18
2022-11-19T10:31:44.473Z,8.13
2022-11-19T10:34:23.300Z,6.80
2022-11-19T10:36:56.502Z,8.13
2022-11-19T10:39:24.895Z,7.85
2022-11-19T10:42:00.688Z,8.23
2022-11-19T10:44:43.071Z,7.88
2022-11-19T10:47:35.604Z,7.95
2022-11-19T10:50:05.591Z,7.95
2022-11-19T10:52:39.974Z,7.90
2022-11-19T10:55:41.571Z,7.60
2022-11-19T10:58:10.982Z,7.10
2022-11-19T11:00:39.621Z,7.93
2022-11-19T11:03:15.551Z,6.90
2022-11-19T11:06:06.287Z,7.18
2022-11-19T11:08:33.922Z,7.68
2022-11-19T11:11:01.147Z,8.38
2022-11-19T11:13:58.306Z,7.88
2022-11-19T11:16:38.890Z,7.68
2022-11-19T11:19:13.646Z,8.13
2022-11-19T11:21:40.458Z,9.18
2022-11-19T11:24:07.507Z,8.88
2022-11-19T11:26:34.820Z,8.23
2022-11-19T11:29:13.345Z,9.00
2022-11-19T11:31:42.079Z,7.60
2022-11-19T11:34:32.277Z,7.90
2022-11-19T11:37:00.782Z,7.80
2022-11-19T11:39:39.010Z,8.02
2022-11-19T11:42:17.251Z,8.18
2022-11-19T11:44:59.846Z,8.70
2022-11-19T11:47:37.702Z,7.63
2022-11-19T11:50:14.930Z,9.40
2022-11-19T11:52:46.748Z,7.55
2022-11-19T11:55:31.643Z,7.60
2022-11-19T11:58:22.846Z,7.32
2022-11-19T12:00:49.321Z,7.60
2022-11-19T12:03:20.925Z,7.60
2022-11-19T12:06:11.038Z,7.47
2022-11-19T12:08:59.349Z,8.52
2022-11-19T12:11:56.035Z,6.78
2022-11-19T12:14:25.505Z,8.18
2022-11-19T12:17:06.829Z,7.80
2022-11-19T12:19:48.629Z,6.63
2022-11-19T12:22:28.903Z,7.22
2022-11-19T12:25:21.379Z,7.63
2022-11-19T12:28:28.420Z,7.10
2022-11-19T12:31:21.164Z,7.13
2022-11-19T12:34:14.741Z,7.50
2022-11-19T12:36:56.647Z,6.93
2022-11-19T12:39:51.786Z,7.55
2022-11-19T12:42:31.575Z,7.82
2022-11-19T12:45:17.052Z,7.93
2022-11-19T12:48:23.963Z,6.80
2022-11-19T12:51:21.442Z,6.80
2022-11-19T12:54:00.363Z,7.18
2022-11-19T12:56:38.990Z,7.03
2022-11-19T12:59:42.279Z,5.68
2022-11-19T13:02:18.491Z,6.63
2022-11-19T13:04:52.734Z,6.55
2022-11-19T13:07:32.434Z,6.38
2022-11-19T13:10:07.573Z,7.18
2022-11-19T13:12:43.122Z,7.10
2022-11-19T13:15:20.222Z,6.50
2022-11-19T13:17:53.780Z,6.50
2022-11-19T13:20:29.159Z,7.05
2022-11-19T13:23:01.616Z,6.82
2022-11-19T13:25:41.618Z,7.72
2022-11-19T13:28:21.556Z,7.32
2022-11-19T13:30:52.397Z,7.20
2022-11-19T13:33:39.739Z,6.97
2022-11-19T13:36:17.462Z,7.40
2022-11-19T13:38:54.565Z,7.25
2022-11-19T13:42:02.044Z,7.60
2022-11-19T13:44:43.458Z,7.43
2022-11-19T13:47:15.730Z,8.77
2022-11-19T13:49:51.048Z,6.93
2022-11-19T13:52:30.009Z,8.00
2022-11-19T13:54:59.272Z,7.80
2022-11-19T13:57:42.386Z,7.50
2022-11-19T14:00:23.193Z,7.07
2022-11-19T14:03:09.297Z,6.93
2022-11-19T14:05:51.026Z,7.78
2022-11-19T14:08:43.998Z,6.82
2022-11-19T14:11:19.162Z,7.15
2022-11-19T14:14:06.593Z,7.28
2022-11-19T14:16:57.693Z,7.60
2022-11-19T14:19:42.620Z,7.38
2022-11-19T14:22:58.386Z,7.45
2022-11-19T14:25:59.660Z,7.28
2022-11-19T14:28:44.154Z,7.70
2022-11-19T14:31:10.926Z,7.43
2022-11-19T14:33:57.812Z,8.00
2022-11-19T14:36:37.648Z,8.13
2022-11-19T14:39:13.118Z,7.90
2022-11-19T14:41:43.964Z,7.80
2022-11-19T14:44:27.221Z,7.68
2022-11-19T14:46:53.663Z,7.53
2022-11-19T14:49:26.964Z,7.35
2022-11-19T14:51:57.703Z,7.72
2022-11-19T14:54:32.503Z,7.95
2022-11-19T14:57:12.132Z,8.02
2022-11-19T14:59:38.784Z,7.70
2022-11-19T15:02:22.937Z,8.02
2022-11-19T15:04:57.610Z,7.97
2022-11-19T15:07:32.941Z,7.38
2022-11-19T15:10:04.815Z,7.18
2022-11-19T15:12:48.531Z,7.43
2022-11-19T15:15:20.690Z,7.60
2022-11-19T15:18:02.442Z,7.20
2022-11-19T15:20:36.615Z,7.50
2022-11-19T15:23:32.423Z,7.45
2022-11-19T15:26:19.139Z,8.77
2022-11-19T15:29:04.274Z,7.97
2022-11-19T15:31:54.655Z,8.90
2022-11-19T15:34:56.037Z,9.37
2022-11-19T15:37:28.239Z,10.07
2022-11-19T15:39:57.110Z,10.55
2022-11-19T15:42:47.852Z,10.35
2022-11-19T15:45:18.665Z,10.80
2022-11-19T15:47:56.102Z,8.60
2022-11-19T15:50:24.408Z,8.70
2022-11-19T15:53:15.656Z,8.70
2022-11-19T15:55:59.576Z,8.73
2022-11-19T15:58:30.855Z,9.43
2022-11-19T16:00:57.334Z,8.63
2022-11-19T16:03:24.134Z,10.18
2022-11-19T16:06:21.723Z,12.18
2022-11-19T16:08:52.970Z,8.98
2022-11-19T16:11:40.300Z,8.25
2022-11-19T16:14:45.123Z,9.70
2022-11-19T16:17:41.768Z,9.23
2022-11-19T16:20:09.698Z,9.50
2022-11-19T16:22:55.002Z,8.77
2022-11-19T16:25:40.042Z,8.88
2022-11-19T16:28:23.676Z,9.20
2022-11-19T16:30:51.462Z,9.98
2022-11-19T16:33:22.080Z,9.02
2022-11-19T16:35:52.949Z,12.82
2022-11-19T16:38:27.815Z,19.02
2022-11-19T16:41:14.382Z,46.20
2022-11-19T16:43:44.692Z,31.85
2022-11-19T16:46:17.249Z,23.57
2022-11-19T16:48:49.714Z,36.95
2022-11-19T16:51:31.176Z,33.30
2022-11-19T16:53:57.634Z,35.55
2022-11-19T16:56:24.499Z,76.38
2022-11-19T16:59:01.094Z,29.90
2022-11-19T17:01:29.649Z,14.30
2022-11-19T17:04:03.589Z,67.18
2022-11-19T17:06:32.468Z,19.75
2022-11-19T17:09:00.964Z,23.20
2022-11-19T17:12:04.842Z,54.25
2022-11-19T17:14:31.298Z,23.30
2022-11-19T17:16:57.728Z,30.27
2022-11-19T17:19:32.043Z,14.52
2022-11-19T17:22:17.716Z,14.73
2022-11-19T17:24:45.895Z,14.95
2022-11-19T17:27:31.403Z,22.58
2022-11-19T17:30:07.901Z,17.13
2022-11-19T17:32:45.512Z,12.98
2022-11-19T17:35:38.211Z,12.55
2022-11-19T17:38:16.211Z,15.70
2022-11-19T17:41:01.436Z,13.35
2022-11-19T17:43:57.446Z,17.40
2022-11-19T17:46:26.290Z,11.18
2022-11-19T17:48:53.460Z,12.80
2022-11-19T17:51:22.356Z,11.05
2022-11-19T17:53:51.227Z,11.48
2022-11-19T17:56:27.640Z,15.70
2022-11-19T17:58:54.871Z,11.68
2022-11-19T18:01:28.026Z,12.40
2022-11-19T18:04:00.461Z,13.13
2022-11-19T18:06:27.083Z,11.65
2022-11-19T18:08:53.470Z,11.70
2022-11-19T18:11:22.761Z,12.65
2022-11-19T18:13:52.294Z,12.18
2022-11-19T18:16:27.261Z,14.38
2022-11-19T18:18:54.016Z,12.00
2022-11-19T18:21:22.929Z,12.85
2022-11-19T18:23:51.546Z,12.77
2022-11-19T18:26:20.568Z,11.35
2022-11-19T18:28:49.052Z,14.35
2022-11-19T18:31:20.154Z,12.35
2022-11-19T18:33:50.051Z,14.05
2022-11-19T18:36:17.175Z,16.05
2022-11-19T18:38:44.299Z,17.20
2022-11-19T18:41:12.321Z,15.05
2022-11-19T18:43:57.705Z,16.02
2022-11-19T18:46:24.319Z,18.33
2022-11-19T18:48:50.939Z,18.92
2022-11-19T18:51:17.460Z,18.67
2022-11-19T18:53:43.967Z,16.08
2022-11-19T18:56:17.829Z,15.43
2022-11-19T18:58:44.225Z,18.40
2022-11-19T19:01:11.436Z,14.60
2022-11-19T19:03:37.917Z,14.65
2022-11-19T19:06:06.861Z,15.70
2022-11-19T19:08:33.373Z,12.95
2022-11-19T19:11:19.046Z,12.35
2022-11-19T19:13:46.045Z,12.77
2022-11-19T19:16:13.294Z,13.43
2022-11-19T19:18:39.933Z,13.00
2022-11-19T19:21:20.437Z,13.40
2022-11-19T19:23:47.563Z,13.05
2022-11-19T19:26:16.322Z,14.57
2022-11-19T19:28:43.204Z,12.45
2022-11-19T19:31:13.575Z,13.45
2022-11-19T19:33:42.894Z,15.30
2022-11-19T19:36:09.531Z,15.32
2022-11-19T19:38:35.942Z,14.73
2022-11-19T19:41:23.457Z,15.30
2022-11-19T19:43:49.988Z,15.27
2022-11-19T19:46:18.706Z,16.25
2022-11-19T19:48:48.049Z,15.40
2022-11-19T19:51:16.453Z,15.18
2022-11-19T19:53:43.626Z,15.30
2022-11-19T19:56:13.551Z,15.23
2022-11-19T19:58:40.964Z,16.38
2022-11-19T20:01:10.375Z,18.08
2022-11-19T20:03:37.553Z,15.48
2022-11-19T20:06:05.500Z,16.38
2022-11-19T20:08:31.998Z,13.63
2022-11-19T20:11:03.695Z,16.23
2022-11-19T20:13:32.080Z,14.27
2022-11-19T20:16:04.664Z,15.02
2022-11-19T20:18:32.029Z,15.15
2022-11-19T20:21:01.646Z,14.38
2022-11-19T20:23:28.462Z,15.55
2022-11-19T20:26:07.510Z,15.43
2022-11-19T20:28:34.485Z,15.70
2022-11-19T20:31:15.918Z,15.30
2022-11-19T20:33:43.786Z,14.77
2022-11-19T20:36:12.244Z,12.80
2022-11-19T20:38:43.167Z,13.25
2022-11-19T20:41:32.099Z,13.63
2022-11-19T20:44:18.395Z,13.57
2022-11-19T20:46:45.475Z,13.88
2022-11-19T20:49:17.142Z,15.48
2022-11-19T20:51:44.961Z,15.15
2022-11-19T20:54:12.290Z,14.57
2022-11-19T20:56:39.080Z,17.50
2022-11-19T20:59:06.206Z,15.20
2022-11-19T21:01:34.030Z,14.30
2022-11-19T21:04:00.765Z,14.05
2022-11-19T21:06:29.329Z,14.95
2022-11-19T21:08:56.633Z,15.88
2022-11-19T21:11:24.284Z,15.75
2022-11-19T21:13:50.772Z,15.00
2022-11-19T21:16:23.161Z,15.43
2022-11-19T21:18:50.569Z,13.10
2022-11-19T21:21:18.706Z,13.82
2022-11-19T21:23:45.250Z,14.52
2022-11-19T21:26:16.384Z,15.43
2022-11-19T21:28:47.163Z,15.63
2022-11-19T21:31:18.584Z,15.23
2022-11-19T21:33:45.841Z,15.70
2022-11-19T21:36:12.505Z,14.68
2022-11-19T21:38:39.392Z,16.00
2022-11-19T21:41:06.430Z,15.50
2022-11-19T21:43:33.314Z,13.82
2022-11-19T21:45:59.697Z,14.88
2022-11-19T21:48:26.887Z,14.85
2022-11-19T21:50:53.706Z,13.77
2022-11-19T21:53:20.212Z,13.38
2022-11-19T21:55:47.057Z,14.88
2022-11-19T21:58:15.270Z,14.30
2022-11-19T22:00:42.777Z,14.32
2022-11-19T22:03:09.420Z,13.98
2022-11-19T22:05:35.858Z,13.80
2022-11-19T22:08:02.567Z,14.23
2022-11-19T22:10:29.662Z,15.00
2022-11-19T22:12:59.123Z,14.98
2022-11-19T22:15:26.943Z,14.30
2022-11-19T22:17:53.454Z,14.30
2022-11-19T22:20:19.849Z,13.30
2022-11-19T22:22:46.578Z,13.25
2022-11-19T22:25:13.833Z,13.95
2022-11-19T22:27:42.854Z,13.73
2022-11-19T22:30:10.185Z,13.90
2022-11-19T22:32:39.688Z,14.40
2022-11-19T22:35:06.736Z,14.10
2022-11-19T22:37:33.244Z,14.57
2022-11-19T22:39:59.648Z,14.55
2022-11-19T22:42:26.081Z,14.05
2022-11-19T22:44:53.107Z,15.48
2022-11-19T22:47:19.525Z,14.73
2022-11-19T22:49:48.478Z,16.17
2022-11-19T22:52:16.014Z,14.95
2022-11-19T22:54:42.505Z,14.40
2022-11-19T22:57:09.861Z,15.25
2022-11-19T22:59:36.348Z,16.17
2022-11-19T23:02:02.805Z,15.77
2022-11-19T23:04:29.275Z,15.50
2022-11-19T23:06:55.750Z,15.40
2022-11-19T23:09:22.432Z,16.63
2022-11-19T23:12:07.837Z,15.13
2022-11-19T23:14:34.241Z,15.52
2022-11-19T23:17:00.671Z,15.18
2022-11-19T23:19:27.114Z,14.38
2022-11-19T23:21:53.518Z,13.32
2022-11-19T23:24:20.267Z,14.63
2022-11-19T23:26:46.649Z,15.38
2022-11-19T23:29:13.189Z,13.73
2022-11-19T23:31:40.492Z,14.52
2022-11-19T23:34:07.666Z,15.05
2022-11-19T23:36:39.771Z,15.90
2022-11-19T23:39:10.185Z,15.75
2022-11-19T23:41:36.603Z,14.27
2022-11-19T23:44:04.275Z,15.82
2022-11-19T23:46:33.161Z,15.13
2022-11-19T23:49:00.888Z,13.88
2022-11-19T23:51:36.234Z,14.35
2022-11-19T23:54:03.789Z,14.27
2022-11-19T23:56:32.311Z,14.35
2022-11-19T23:59:00.938Z,14.07
